ZEM weather

Eastmain River Airport
Eastmain River, Quebec, Canada

Public forecast

Using degrees Celsius for public forecast. Weather courtesy of forecast.io.

Current aviation weather report (METAR) for Eastmain River Airport

Retrieved 2020/05/27 16:00 UTC (13 minutes ago):

CZEM 271600Z 21009G15KT 15SM VCSH SCT065 BKN140 21/17 A2971 RMK SC3AC4 SLP062 DENSITY ALT 1000FT

Closest aviation forecast (TAF) to Eastmain River Airport

Closest forecast is Waskaganish Airport, 46.1 nm (85.3 km) S. Retrieved 2020/05/27 15:00 UTC (1 hour ago):

TAF CYKQ 271430Z 2715/2721 22010KT P6SM FEW080 BKN130 TEMPO 2715/2719 BKN080 BECMG 2719/2721 2SM BR OVC008 RMK NXT FCST WILL BE ISSUED AT 281445Z